עמוד ראשי
METAR-TAF:

METAR-TAF

שדות תעופה :

Ascencion de Guarayos, בוליביה

קו רוחב: 15-43S, קו אורך: 063-06W, גובה: 247מטר

תצפית מזג אוויר נוכחית

הדו"ח נערך לפני 15 שעות ו 17דקות, בשעה 22:00 UTC
רוח 4קשר מכיוון דרום
טמפרטורת 27 צלסיוס
לחות 58%
לחץ 1020 hPa
ראות: 5000מטר
עשן,

METAR: SLAS 172200Z 18004KT 5000 FU NSC 27/18 Q1020

זמן: 09:17 (13:17 UTC)


TAF: חסר

תצפיות ותחזיות מזג אוויר לגבי יותר מ- 4,000 שדות תעופה ברחבי העולם. דוחות METAR ו- TAF.

התחנות הזמינות מסומנות בנקודות צהובות ואדומות על גבי המפה.

העבר את העכבר לנקודה הצבעונית על מנת לראות את שם התחנה.

לאחר מכן, לחץ כדי לראות את תוכן ואת תחזיות מזג האוויר.

כדי לשנות את המפה: לחץ על הכפתורים הירוקים עם הפלוס השחור כדי להתקרב; על הכפתור הירוק עם המקף כדי להתרחק; או בחיצים הירוקים למפות סמוכות.


METAR-TAF: